sensor_id;sensor_type;location;lat;lon;timestamp;pressure;altitude;pressure_sealevel;temperature;humidity
26915;BME280;14480;52.608;13.416;2023-05-08T07:17:34;143944.94;;;-0.17;64.13
26915;BME280;14480;52.608;13.416;2023-05-08T07:22:38;143999.69;;;0.06;64.74
26915;BME280;14480;52.608;13.416;2023-05-08T07:27:42;143989.75;;;0.02;63.16
26915;BME280;14480;52.608;13.416;2023-05-08T07:32:49;143893.94;;;-0.38;63.86
26915;BME280;14480;52.608;13.416;2023-05-08T07:37:52;143780.78;;;-0.84;61.20
26915;BME280;14480;52.608;13.416;2023-05-08T07:42:56;143688.78;;;-1.22;62.65
26915;BME280;14480;52.608;13.416;2023-05-08T07:48:00;143711.19;;;-1.12;62.84
26915;BME280;14480;52.608;13.416;2023-05-08T07:53:04;143593.13;;;-1.61;62.88
26915;BME280;14480;52.608;13.416;2023-05-08T07:58:07;143573.22;;;-1.69;64.51
26915;BME280;14480;52.608;13.416;2023-05-08T08:03:12;143492.47;;;-2.02;62.82
26915;BME280;14480;52.608;13.416;2023-05-08T08:08:15;143435.38;;;-2.25;65.68
26915;BME280;14480;52.608;13.416;2023-05-08T08:13:19;143295.06;;;-2.83;64.93
26915;BME280;14480;52.608;13.416;2023-05-08T08:18:24;143249.16;;;-3.02;65.30
26915;BME280;14480;52.608;13.416;2023-05-08T08:23:27;143144.97;;;-3.44;66.93
26915;BME280;14480;52.608;13.416;2023-05-08T08:28:31;143172.25;;;-3.33;68.10
26915;BME280;14480;52.608;13.416;2023-05-08T08:33:35;143230.56;;;-3.09;66.66
26915;BME280;14480;52.608;13.416;2023-05-08T08:38:39;143257.88;;;-2.98;66.74
26915;BME280;14480;52.608;13.416;2023-05-08T08:43:42;143153.63;;;-3.41;68.81
26915;BME280;14480;52.608;13.416;2023-05-08T08:48:47;143149.91;;;-3.42;67.94
26915;BME280;14480;52.608;13.416;2023-05-08T08:53:53;143202.03;;;-3.21;67.84
26915;BME280;14480;52.608;13.416;2023-05-08T08:58:57;143262.81;;;-2.96;66.38
26915;BME280;14480;52.608;13.416;2023-05-08T09:04:04;143261.59;;;-2.97;65.05
26915;BME280;14480;52.608;13.416;2023-05-08T09:09:08;143316.19;;;-2.74;65.69
26915;BME280;14480;52.608;13.416;2023-05-08T09:14:13;143344.75;;;-2.62;63.68
26915;BME280;14480;52.608;13.416;2023-05-08T09:19:21;143400.59;;;-2.40;64.32
26915;BME280;14480;52.608;13.416;2023-05-08T09:29:57;143521.06;;;-1.90;64.37
26915;BME280;14480;52.608;13.416;2023-05-08T09:35:03;143548.38;;;-1.79;61.46
26915;BME280;14480;52.608;13.416;2023-05-08T09:40:14;143494.97;;;-2.01;65.57
26915;BME280;14480;52.608;13.416;2023-05-08T09:45:27;143573.22;;;-1.69;65.64
26915;BME280;14480;52.608;13.416;2023-05-08T09:50:32;143614.22;;;-1.52;59.03
26915;BME280;14480;52.608;13.416;2023-05-08T09:55:45;143557.06;;;-1.76;63.67
26915;BME280;14480;52.608;13.416;2023-05-08T10:00:49;143655.25;;;-1.35;58.63
26915;BME280;14480;52.608;13.416;2023-05-08T10:05:54;143660.22;;;-1.33;58.79
26915;BME280;14480;52.608;13.416;2023-05-08T10:11:01;143660.22;;;-1.33;55.90
26915;BME280;14480;52.608;13.416;2023-05-08T10:16:16;143676.38;;;-1.27;55.79
26915;BME280;14480;52.608;13.416;2023-05-08T10:21:21;143671.38;;;-1.29;56.89
26915;BME280;14480;52.608;13.416;2023-05-08T10:26:30;143691.28;;;-1.21;60.79
26915;BME280;14480;52.608;13.416;2023-05-08T10:31:34;143749.69;;;-0.97;60.68
26915;BME280;14480;52.608;13.416;2023-05-08T10:36:39;143642.78;;;-1.40;60.12
26915;BME280;14480;52.608;13.416;2023-05-08T10:41:43;143760.91;;;-0.92;57.76
26915;BME280;14480;52.608;13.416;2023-05-08T10:46:48;143825.53;;;-0.66;55.93
26915;BME280;14480;52.608;13.416;2023-05-08T10:51:57;143865.31;;;-0.49;55.29
26915;BME280;14480;52.608;13.416;2023-05-08T10:57:08;143887.72;;;-0.40;55.01
26915;BME280;14480;52.608;13.416;2023-05-08T11:02:11;143819.34;;;-0.68;52.61
26915;BME280;14480;52.608;13.416;2023-05-08T11:07:16;143862.84;;;-0.50;53.72
26915;BME280;14480;52.608;13.416;2023-05-08T11:12:22;143916.31;;;-0.28;54.23
26915;BME280;14480;52.608;13.416;2023-05-08T11:17:26;143851.66;;;-0.55;52.21
26915;BME280;14480;52.608;13.416;2023-05-08T11:22:31;143862.84;;;-0.50;54.85
26915;BME280;14480;52.608;13.416;2023-05-08T11:33:11;143846.69;;;-0.57;52.70
26915;BME280;14480;52.608;13.416;2023-05-08T11:44:19;143941.22;;;-0.18;55.37
26915;BME280;14480;52.608;13.416;2023-05-08T11:49:23;143964.84;;;-0.09;53.23
26915;BME280;14480;52.608;13.416;2023-05-08T11:54:30;143923.78;;;-0.25;58.35
26915;BME280;14480;52.608;13.416;2023-05-08T11:59:36;143830.50;;;-0.64;58.49
26915;BME280;14480;52.608;13.416;2023-05-08T12:04:43;143887.72;;;-0.40;58.01
26915;BME280;14480;52.608;13.416;2023-05-08T12:09:47;143840.44;;;-0.60;60.65
26915;BME280;14480;52.608;13.416;2023-05-08T12:14:52;143864.09;;;-0.50;58.74
26915;BME280;14480;52.608;13.416;2023-05-08T12:19:55;143852.91;;;-0.54;60.58
26915;BME280;14480;52.608;13.416;2023-05-08T12:25:05;143933.75;;;-0.21;57.92
26915;BME280;14480;52.608;13.416;2023-05-08T12:30:11;143977.28;;;-0.04;57.79
26915;BME280;14480;52.608;13.416;2023-05-08T12:35:16;143971.06;;;-0.06;55.86
26915;BME280;14480;52.608;13.416;2023-05-08T12:40:23;143932.50;;;-0.22;55.84
26915;BME280;14480;52.608;13.416;2023-05-08T12:45:29;143930.03;;;-0.23;57.60
26915;BME280;14480;52.608;13.416;2023-05-08T12:50:34;143951.16;;;-0.14;56.22
26915;BME280;14480;52.608;13.416;2023-05-08T12:55:38;143922.53;;;-0.26;56.69
26915;BME280;14480;52.608;13.416;2023-05-08T13:00:43;143987.25;;;0.01;55.66
26915;BME280;14480;52.608;13.416;2023-05-08T13:05:47;143987.25;;;0.01;54.15
26915;BME280;14480;52.608;13.416;2023-05-08T13:10:51;143983.47;;;-0.01;54.75
26915;BME280;14480;52.608;13.416;2023-05-08T13:15:56;143972.31;;;-0.06;55.25
26915;BME280;14480;52.608;13.416;2023-05-08T13:21:00;143997.19;;;0.05;54.40
26915;BME280;14480;52.608;13.416;2023-05-08T13:26:06;144024.56;;;0.16;54.65
26915;BME280;14480;52.608;13.416;2023-05-08T13:31:11;144020.84;;;0.14;53.49
26915;BME280;14480;52.608;13.416;2023-05-08T13:36:14;144018.34;;;0.13;54.58
26915;BME280;14480;52.608;13.416;2023-05-08T13:41:18;144028.28;;;0.17;54.08
26915;BME280;14480;52.608;13.416;2023-05-08T13:46:23;144014.63;;;0.12;54.59
26915;BME280;14480;52.608;13.416;2023-05-08T13:51:27;144115.41;;;0.53;54.18
26915;BME280;14480;52.608;13.416;2023-05-08T13:56:30;144129.13;;;0.58;54.53
26915;BME280;14480;52.608;13.416;2023-05-08T14:01:35;144134.09;;;0.61;53.71
26915;BME280;14480;52.608;13.416;2023-05-08T14:06:38;144178.88;;;0.79;53.90
26915;BME280;14480;52.608;13.416;2023-05-08T14:11:42;144129.13;;;0.58;51.58
26915;BME280;14480;52.608;13.416;2023-05-08T14:16:46;144083.06;;;0.40;52.70
26915;BME280;14480;52.608;13.416;2023-05-08T14:21:51;144091.75;;;0.43;52.54
26915;BME280;14480;52.608;13.416;2023-05-08T14:26:55;144136.59;;;0.62;52.57
26915;BME280;14480;52.608;13.416;2023-05-08T14:32:04;144150.25;;;0.67;51.86
26915;BME280;14480;52.608;13.416;2023-05-08T14:37:08;144105.47;;;0.49;51.95
26915;BME280;14480;52.608;13.416;2023-05-08T14:42:15;144126.59;;;0.57;51.80
26915;BME280;14480;52.608;13.416;2023-05-08T14:47:26;144114.16;;;0.52;51.94
26915;BME280;14480;52.608;13.416;2023-05-08T14:52:29;144088.03;;;0.42;51.64
26915;BME280;14480;52.608;13.416;2023-05-08T14:57:32;144120.38;;;0.55;51.74
26915;BME280;14480;52.608;13.416;2023-05-08T15:02:39;144134.09;;;0.61;51.98
26915;BME280;14480;52.608;13.416;2023-05-08T15:07:43;144101.72;;;0.47;51.82
26915;BME280;14480;52.608;13.416;2023-05-08T15:12:48;144125.34;;;0.57;52.27
26915;BME280;14480;52.608;13.416;2023-05-08T15:17:55;144149.00;;;0.67;51.82
26915;BME280;14480;52.608;13.416;2023-05-08T15:22:59;144086.78;;;0.41;51.90
26915;BME280;14480;52.608;13.416;2023-05-08T15:28:02;144081.81;;;0.39;52.77
26915;BME280;14480;52.608;13.416;2023-05-08T15:33:09;144069.34;;;0.34;52.80
26915;BME280;14480;52.608;13.416;2023-05-08T15:38:12;144105.47;;;0.49;52.73
26915;BME280;14480;52.608;13.416;2023-05-08T15:43:18;144127.88;;;0.58;54.41
26915;BME280;14480;52.608;13.416;2023-05-08T15:48:23;144054.44;;;0.28;51.60
26915;BME280;14480;52.608;13.416;2023-05-08T15:53:26;144034.50;;;0.20;52.96
26915;BME280;14480;52.608;13.416;2023-05-08T15:58:32;144074.34;;;0.36;53.00
26915;BME280;14480;52.608;13.416;2023-05-08T16:03:39;144065.59;;;0.33;53.22
26915;BME280;14480;52.608;13.416;2023-05-08T16:08:44;144075.59;;;0.37;53.25
26915;BME280;14480;52.608;13.416;2023-05-08T16:13:48;144088.03;;;0.42;54.20
26915;BME280;14480;52.608;13.416;2023-05-08T16:18:54;144061.88;;;0.31;54.20
26915;BME280;14480;52.608;13.416;2023-05-08T16:23:58;144059.41;;;0.30;53.97
26915;BME280;14480;52.608;13.416;2023-05-08T16:29:01;144038.22;;;0.21;54.02
26915;BME280;14480;52.608;13.416;2023-05-08T16:34:06;144022.09;;;0.15;54.90
26915;BME280;14480;52.608;13.416;2023-05-08T16:39:09;144017.13;;;0.13;55.09
26915;BME280;14480;52.608;13.416;2023-05-08T16:44:13;143986.00;;;0.00;56.38
26915;BME280;14480;52.608;13.416;2023-05-08T16:49:18;143984.72;;;-0.01;59.21
26915;BME280;14480;52.608;13.416;2023-05-08T16:54:21;143662.69;;;-1.32;56.64
26915;BME280;14480;52.608;13.416;2023-05-08T16:59:25;143905.16;;;-0.33;57.23
26915;BME280;14480;52.608;13.416;2023-05-08T17:04:29;143913.84;;;-0.30;57.91
26915;BME280;14480;52.608;13.416;2023-05-08T17:09:33;143907.63;;;-0.32;58.06
26915;BME280;14480;52.608;13.416;2023-05-08T17:14:36;143910.13;;;-0.31;57.72
26915;BME280;14480;52.608;13.416;2023-05-08T17:19:42;143867.81;;;-0.48;57.81
26915;BME280;14480;52.608;13.416;2023-05-08T17:24:46;143842.94;;;-0.59;58.38
26915;BME280;14480;52.608;13.416;2023-05-08T17:29:49;143825.53;;;-0.66;57.39
26915;BME280;14480;52.608;13.416;2023-05-08T17:34:54;143820.59;;;-0.68;57.08
26915;BME280;14480;52.608;13.416;2023-05-08T17:39:57;143788.25;;;-0.81;57.80
26915;BME280;14480;52.608;13.416;2023-05-08T17:45:00;143754.66;;;-0.95;58.82
26915;BME280;14480;52.608;13.416;2023-05-08T17:50:07;143728.56;;;-1.05;58.38
26915;BME280;14480;52.608;13.416;2023-05-08T17:55:11;143691.28;;;-1.21;58.26
26915;BME280;14480;52.608;13.416;2023-05-08T18:00:16;143676.38;;;-1.27;58.43
26915;BME280;14480;52.608;13.416;2023-05-08T18:05:21;143644.03;;;-1.40;58.85
26915;BME280;14480;52.608;13.416;2023-05-08T18:10:25;143601.81;;;-1.57;59.88
26915;BME280;14480;52.608;13.416;2023-05-08T18:15:28;143567.03;;;-1.71;60.32
26915;BME280;14480;52.608;13.416;2023-05-08T18:20:33;143547.16;;;-1.80;60.84
26915;BME280;14480;52.608;13.416;2023-05-08T18:25:36;143516.09;;;-1.92;60.78
26915;BME280;14480;52.608;13.416;2023-05-08T18:30:39;143480.09;;;-2.07;61.42
26915;BME280;14480;52.608;13.416;2023-05-08T18:35:44;143431.63;;;-2.27;62.12
26915;BME280;14480;52.608;13.416;2023-05-08T18:40:48;143396.88;;;-2.41;62.31
26915;BME280;14480;52.608;13.416;2023-05-08T18:45:51;143360.84;;;-2.56;62.85
26915;BME280;14480;52.608;13.416;2023-05-08T18:50:56;143323.63;;;-2.71;63.07
26915;BME280;14480;52.608;13.416;2023-05-08T18:56:00;143292.59;;;-2.84;63.71
26915;BME280;14480;52.608;13.416;2023-05-08T19:01:04;143239.22;;;-3.06;64.24
26915;BME280;14480;52.608;13.416;2023-05-08T19:06:09;143215.66;;;-3.15;64.81
26915;BME280;14480;52.608;13.416;2023-05-08T19:11:12;143184.63;;;-3.28;65.76
26915;BME280;14480;52.608;13.416;2023-05-08T19:16:16;143161.06;;;-3.38;65.99
26915;BME280;14480;52.608;13.416;2023-05-08T19:21:20;143108.94;;;-3.59;66.34
26915;BME280;14480;52.608;13.416;2023-05-08T19:26:27;143131.28;;;-3.50;66.78
26915;BME280;14480;52.608;13.416;2023-05-08T19:31:30;143104.00;;;-3.61;67.83
26915;BME280;14480;52.608;13.416;2023-05-08T19:36:35;143069.28;;;-3.75;68.07
26915;BME280;14480;52.608;13.416;2023-05-08T19:41:39;143070.53;;;-3.75;68.83
26915;BME280;14480;52.608;13.416;2023-05-08T19:46:42;143027.16;;;-3.93;70.02
26915;BME280;14480;52.608;13.416;2023-05-08T19:51:47;143004.81;;;-4.02;70.31
26915;BME280;14480;52.608;13.416;2023-05-08T19:56:50;142983.72;;;-4.11;71.13
26915;BME280;14480;52.608;13.416;2023-05-08T20:01:54;142957.69;;;-4.21;71.40
26915;BME280;14480;52.608;13.416;2023-05-08T20:07:01;142942.84;;;-4.27;71.10
26915;BME280;14480;52.608;13.416;2023-05-08T20:12:07;142929.19;;;-4.33;71.63
26915;BME280;14480;52.608;13.416;2023-05-08T20:17:11;142919.28;;;-4.37;72.07
26915;BME280;14480;52.608;13.416;2023-05-08T20:22:16;142885.84;;;-4.51;72.47
26915;BME280;14480;52.608;13.416;2023-05-08T20:27:19;142888.31;;;-4.50;72.79
26915;BME280;14480;52.608;13.416;2023-05-08T20:32:25;142852.34;;;-4.64;72.94
26915;BME280;14480;52.608;13.416;2023-05-08T20:37:29;142836.25;;;-4.71;73.36
26915;BME280;14480;52.608;13.416;2023-05-08T20:42:35;142802.81;;;-4.85;74.07
26915;BME280;14480;52.608;13.416;2023-05-08T20:47:38;142782.97;;;-4.93;74.15
26915;BME280;14480;52.608;13.416;2023-05-08T20:52:44;142761.91;;;-5.02;74.36
26915;BME280;14480;52.608;13.416;2023-05-08T20:57:47;142738.38;;;-5.11;75.09
26915;BME280;14480;52.608;13.416;2023-05-08T21:02:50;142718.56;;;-5.19;75.99
26915;BME280;14480;52.608;13.416;2023-05-08T21:07:55;142701.22;;;-5.26;76.71
26915;BME280;14480;52.608;13.416;2023-05-08T21:13:01;142666.56;;;-5.41;77.43
26915;BME280;14480;52.608;13.416;2023-05-08T21:18:04;142645.50;;;-5.49;78.31
26915;BME280;14480;52.608;13.416;2023-05-08T21:23:09;142619.50;;;-5.60;78.69
26915;BME280;14480;52.608;13.416;2023-05-08T21:28:12;142591.03;;;-5.72;79.59
26915;BME280;14480;52.608;13.416;2023-05-08T21:33:17;142551.44;;;-5.88;80.25
26915;BME280;14480;52.608;13.416;2023-05-08T21:38:22;142532.88;;;-5.96;80.99
26915;BME280;14480;52.608;13.416;2023-05-08T21:43:25;142515.53;;;-6.03;82.09
